createdAt,value
2023-09-13T00:02:23.685Z,11.30
2023-09-13T00:04:50.794Z,12.35
2023-09-13T00:07:19.688Z,11.85
2023-09-13T00:09:47.017Z,12.73
2023-09-13T00:12:14.420Z,12.00
2023-09-13T00:14:41.310Z,12.05
2023-09-13T00:17:08.224Z,12.15
2023-09-13T00:19:35.559Z,12.10
2023-09-13T00:22:03.322Z,11.98
2023-09-13T00:24:30.349Z,12.70
2023-09-13T00:26:57.242Z,12.35
2023-09-13T00:29:24.152Z,12.80
2023-09-13T00:31:51.246Z,12.07
2023-09-13T00:34:18.839Z,12.77
2023-09-13T00:36:45.815Z,12.55
2023-09-13T00:39:13.638Z,12.45
2023-09-13T00:41:40.622Z,12.30
2023-09-13T00:44:07.528Z,12.82
2023-09-13T00:46:35.003Z,12.02
2023-09-13T00:49:02.765Z,11.55
2023-09-13T00:51:30.159Z,12.13
2023-09-13T00:53:57.904Z,12.02
2023-09-13T00:56:24.991Z,11.45
2023-09-13T00:58:52.896Z,12.75
2023-09-13T01:01:20.269Z,12.00
2023-09-13T01:03:48.131Z,12.25
2023-09-13T01:06:15.498Z,12.00
2023-09-13T01:08:44.018Z,12.00
2023-09-13T01:11:12.278Z,11.95
2023-09-13T01:13:39.396Z,12.02
2023-09-13T01:16:18.433Z,12.98
2023-09-13T01:19:00.334Z,12.27
2023-09-13T01:21:39.824Z,12.27
2023-09-13T01:24:25.174Z,13.57
2023-09-13T01:27:10.669Z,12.60
2023-09-13T01:29:37.912Z,12.13
2023-09-13T01:32:05.136Z,12.43
2023-09-13T01:34:32.625Z,13.02
2023-09-13T01:36:59.885Z,12.60
2023-09-13T01:39:27.404Z,12.23
2023-09-13T01:41:58.273Z,11.95
2023-09-13T01:44:25.278Z,12.55
2023-09-13T01:46:53.115Z,13.15
2023-09-13T01:49:22.063Z,12.73
2023-09-13T01:51:50.156Z,12.37
2023-09-13T01:54:20.270Z,13.27
2023-09-13T01:56:47.182Z,12.60
2023-09-13T01:59:14.205Z,11.90
2023-09-13T02:01:41.459Z,13.07
2023-09-13T02:04:08.686Z,12.98
2023-09-13T02:06:35.643Z,12.98
2023-09-13T02:09:02.546Z,13.27
2023-09-13T02:11:29.473Z,12.50
2023-09-13T02:13:56.371Z,12.52
2023-09-13T02:16:23.348Z,12.02
2023-09-13T02:18:50.565Z,11.68
2023-09-13T02:21:17.817Z,12.50
2023-09-13T02:23:44.864Z,12.00
2023-09-13T02:26:30.132Z,11.93
2023-09-13T02:28:57.651Z,12.35
2023-09-13T02:31:25.395Z,12.15
2023-09-13T02:33:52.566Z,12.77
2023-09-13T02:36:19.589Z,12.68
2023-09-13T02:38:46.546Z,12.55
2023-09-13T02:41:13.515Z,11.90
2023-09-13T02:43:43.804Z,12.85
2023-09-13T02:46:11.030Z,12.52
2023-09-13T02:48:38.263Z,12.57
2023-09-13T02:51:05.177Z,12.63
2023-09-13T02:53:32.446Z,12.88
2023-09-13T02:56:06.796Z,12.93
2023-09-13T02:58:33.944Z,13.00
2023-09-13T03:01:05.137Z,11.75
2023-09-13T03:03:33.149Z,12.23
2023-09-13T03:06:07.709Z,13.40
2023-09-13T03:08:34.740Z,12.48
2023-09-13T03:11:12.609Z,12.50
2023-09-13T03:13:39.601Z,13.95
2023-09-13T03:16:19.588Z,12.10
2023-09-13T03:18:48.080Z,12.88
2023-09-13T03:21:15.329Z,13.10
2023-09-13T03:23:44.029Z,13.18
2023-09-13T03:26:22.793Z,13.90
2023-09-13T03:28:51.529Z,12.73
2023-09-13T03:31:20.225Z,13.50
2023-09-13T03:33:49.381Z,13.05
2023-09-13T03:36:17.338Z,13.55
2023-09-13T03:38:45.193Z,13.93
2023-09-13T03:41:13.510Z,13.65
2023-09-13T03:43:40.466Z,13.27
2023-09-13T03:46:08.318Z,12.68
2023-09-13T03:48:37.263Z,12.60
2023-09-13T03:51:05.072Z,13.80
2023-09-13T03:53:32.315Z,14.07
2023-09-13T03:56:00.057Z,13.27
2023-09-13T03:58:27.319Z,12.52
2023-09-13T04:00:55.009Z,12.23
2023-09-13T04:03:22.472Z,12.05
2023-09-13T04:05:49.671Z,12.68
2023-09-13T04:08:16.681Z,12.45
2023-09-13T04:10:43.602Z,12.40
2023-09-13T04:13:10.618Z,13.40
2023-09-13T04:15:37.648Z,13.80
2023-09-13T04:18:06.345Z,14.05
2023-09-13T04:20:36.234Z,13.10
2023-09-13T04:23:03.639Z,14.40
2023-09-13T04:25:30.680Z,14.00
2023-09-13T04:27:57.617Z,14.00
2023-09-13T04:30:24.650Z,13.93
2023-09-13T04:32:51.595Z,13.90
2023-09-13T04:35:18.620Z,13.35
2023-09-13T04:37:45.547Z,13.18
2023-09-13T04:40:13.594Z,13.85
2023-09-13T04:42:43.990Z,13.98
2023-09-13T04:45:11.181Z,12.88
2023-09-13T04:47:40.139Z,13.50
2023-09-13T04:50:09.963Z,13.07
2023-09-13T04:52:38.295Z,12.63
2023-09-13T04:55:06.820Z,13.35
2023-09-13T04:57:34.298Z,13.27
2023-09-13T05:00:01.262Z,13.27
2023-09-13T05:02:28.425Z,13.15
2023-09-13T05:04:55.465Z,14.30
2023-09-13T05:07:22.450Z,13.20
2023-09-13T05:09:49.433Z,13.57
2023-09-13T05:12:16.404Z,15.13
2023-09-13T05:14:43.778Z,15.10
2023-09-13T05:17:11.664Z,13.85
2023-09-13T05:19:38.653Z,13.05
2023-09-13T05:22:05.687Z,12.85
2023-09-13T05:24:32.666Z,13.38
2023-09-13T05:26:59.574Z,12.02
2023-09-13T05:29:26.481Z,11.57
2023-09-13T05:31:55.416Z,11.10
2023-09-13T05:34:23.879Z,10.70
2023-09-13T05:36:50.848Z,11.18
2023-09-13T05:39:17.763Z,10.55
2023-09-13T05:41:44.763Z,9.88
2023-09-13T05:44:11.720Z,10.10
2023-09-13T05:46:38.784Z,9.52
2023-09-13T05:49:06.498Z,10.00
2023-09-13T05:51:33.492Z,8.90
2023-09-13T05:54:00.463Z,9.95
2023-09-13T05:56:28.110Z,9.23
2023-09-13T05:58:55.171Z,10.10
2023-09-13T06:01:24.122Z,9.27
2023-09-13T06:03:51.250Z,9.20
2023-09-13T06:06:18.216Z,8.85
2023-09-13T06:08:45.291Z,9.32
2023-09-13T06:11:12.225Z,8.65
2023-09-13T06:13:39.197Z,9.23
2023-09-13T06:16:06.232Z,10.18
2023-09-13T06:18:33.168Z,9.48
2023-09-13T06:21:00.635Z,9.23
2023-09-13T06:23:41.134Z,9.38
2023-09-13T06:26:09.854Z,9.88
2023-09-13T06:28:36.985Z,9.45
2023-09-13T06:31:05.203Z,9.50
2023-09-13T06:33:42.228Z,9.23
2023-09-13T06:36:10.154Z,9.02
2023-09-13T06:38:37.733Z,8.73
2023-09-13T06:41:04.986Z,9.13
2023-09-13T06:43:58.037Z,8.75
2023-09-13T06:46:20.489Z,8.70
2023-09-13T06:48:47.912Z,8.63
2023-09-13T06:53:45.542Z,8.35
2023-09-13T06:56:17.498Z,9.13
2023-09-13T06:58:47.657Z,8.90
2023-09-13T07:01:34.958Z,8.70
2023-09-13T07:04:06.504Z,9.30
2023-09-13T07:06:35.925Z,9.35
2023-09-13T07:09:04.197Z,9.48
2023-09-13T07:11:31.096Z,9.80
2023-09-13T07:13:59.665Z,9.65
2023-09-13T07:16:27.664Z,9.07
2023-09-13T07:18:56.875Z,9.10
2023-09-13T07:21:23.770Z,9.68
2023-09-13T07:23:50.762Z,9.65
2023-09-13T07:26:17.707Z,9.55
2023-09-13T07:28:44.925Z,9.82
2023-09-13T07:31:12.628Z,9.32
2023-09-13T07:33:39.831Z,8.88
2023-09-13T07:36:06.809Z,9.15
2023-09-13T07:38:33.862Z,9.10
2023-09-13T07:41:00.937Z,9.00
2023-09-13T07:43:28.791Z,10.02
2023-09-13T07:45:55.720Z,9.85
2023-09-13T07:48:24.117Z,9.20
2023-09-13T07:50:51.064Z,10.35
2023-09-13T07:53:17.989Z,10.18
2023-09-13T07:55:44.968Z,10.07
2023-09-13T07:58:12.001Z,10.43
2023-09-13T08:00:39.018Z,10.38
2023-09-13T08:03:06.425Z,10.13
2023-09-13T08:05:33.474Z,10.00
2023-09-13T08:08:00.778Z,10.05
2023-09-13T08:10:27.783Z,9.50
2023-09-13T08:12:55.061Z,10.20
2023-09-13T08:15:30.713Z,9.70
2023-09-13T08:18:08.965Z,9.98
2023-09-13T08:20:36.817Z,10.13
2023-09-13T08:23:03.865Z,9.40
2023-09-13T08:25:30.891Z,9.88
2023-09-13T08:27:57.852Z,9.73
2023-09-13T08:30:24.828Z,10.15
2023-09-13T08:32:51.894Z,9.85
2023-09-13T08:35:18.826Z,10.57
2023-09-13T08:37:45.808Z,10.48
2023-09-13T08:40:13.120Z,9.63
2023-09-13T08:42:42.057Z,9.65
2023-09-13T08:45:09.470Z,9.57
2023-09-13T08:47:51.222Z,10.45
2023-09-13T08:50:27.599Z,9.57
2023-09-13T08:52:54.872Z,9.85
2023-09-13T08:55:22.243Z,9.85
2023-09-13T08:57:49.513Z,9.60
2023-09-13T09:00:17.102Z,9.15
2023-09-13T09:02:44.634Z,9.20
2023-09-13T09:05:13.930Z,10.15
2023-09-13T09:07:42.523Z,8.45
2023-09-13T09:10:12.959Z,8.90
2023-09-13T09:12:43.374Z,7.70
2023-09-13T09:15:12.131Z,8.52
2023-09-13T09:17:39.698Z,8.30
2023-09-13T09:20:07.497Z,7.82
2023-09-13T09:22:34.545Z,8.48
2023-09-13T09:25:01.802Z,8.15
2023-09-13T09:27:28.697Z,8.32
2023-09-13T09:30:04.509Z,8.52
2023-09-13T09:32:31.896Z,8.10
2023-09-13T09:35:01.715Z,8.70
2023-09-13T09:37:33.341Z,8.90
2023-09-13T09:40:00.808Z,8.50
2023-09-13T09:42:27.871Z,9.25
2023-09-13T09:44:56.404Z,8.95
2023-09-13T09:47:23.483Z,8.32
2023-09-13T09:49:53.388Z,8.93
2023-09-13T09:52:20.472Z,9.80
2023-09-13T09:54:48.876Z,9.35
2023-09-13T09:57:27.337Z,8.70
2023-09-13T09:59:54.457Z,9.13
2023-09-13T10:02:28.838Z,9.57
2023-09-13T10:04:56.254Z,8.93
2023-09-13T10:07:23.259Z,8.95
2023-09-13T10:09:50.208Z,9.68
2023-09-13T10:12:17.217Z,8.95
2023-09-13T10:14:45.995Z,8.93
2023-09-13T10:17:13.496Z,9.73
2023-09-13T10:19:42.998Z,9.55
2023-09-13T10:22:14.487Z,10.00
2023-09-13T10:24:48.700Z,10.07
2023-09-13T10:27:18.368Z,8.90
2023-09-13T10:29:55.217Z,8.93
2023-09-13T10:32:24.392Z,9.77
2023-09-13T10:34:56.229Z,9.40
2023-09-13T10:37:42.802Z,9.02
2023-09-13T10:40:52.268Z,9.50
2023-09-13T10:43:19.553Z,9.07
2023-09-13T10:45:46.639Z,9.88
2023-09-13T10:48:13.839Z,9.70
2023-09-13T10:50:40.772Z,9.48
2023-09-13T10:53:08.193Z,9.10
2023-09-13T10:55:35.398Z,9.18
2023-09-13T10:58:04.519Z,9.45
2023-09-13T11:00:35.198Z,9.23
2023-09-13T11:03:04.516Z,9.27
2023-09-13T11:05:33.369Z,9.30
2023-09-13T11:08:00.423Z,9.05
2023-09-13T11:10:31.721Z,8.88
2023-09-13T11:13:12.334Z,8.93
2023-09-13T11:15:50.314Z,8.95
2023-09-13T11:18:17.994Z,9.63
2023-09-13T11:20:45.003Z,8.68
2023-09-13T11:23:33.374Z,9.20
2023-09-13T11:26:12.018Z,9.20
2023-09-13T11:28:42.716Z,8.60
2023-09-13T11:31:11.346Z,9.75
2023-09-13T11:33:52.999Z,8.73
2023-09-13T11:36:21.823Z,9.25
2023-09-13T11:38:53.559Z,9.07
2023-09-13T11:41:20.993Z,8.75
2023-09-13T11:44:03.366Z,9.25
2023-09-13T11:46:31.913Z,8.95
2023-09-13T11:49:03.020Z,8.00
2023-09-13T11:51:50.687Z,8.88
2023-09-13T11:54:21.361Z,9.00
2023-09-13T11:56:52.197Z,9.35
2023-09-13T11:59:31.969Z,9.10
2023-09-13T12:01:59.573Z,9.10
2023-09-13T12:07:03.039Z,9.70
2023-09-13T12:09:32.009Z,9.55
2023-09-13T12:12:06.872Z,8.95
2023-09-13T12:14:57.001Z,9.07
2023-09-13T12:17:37.944Z,8.70
2023-09-13T12:20:09.195Z,9.20
2023-09-13T12:22:43.060Z,9.90
2023-09-13T12:25:14.766Z,9.60
2023-09-13T12:27:42.237Z,9.27
2023-09-13T12:30:16.197Z,9.45
2023-09-13T12:32:45.341Z,9.45
2023-09-13T12:35:13.338Z,9.25
2023-09-13T12:37:40.259Z,9.55
2023-09-13T12:40:16.431Z,9.75
2023-09-13T12:42:43.728Z,9.90
2023-09-13T12:45:11.366Z,9.75
2023-09-13T12:47:38.729Z,10.07
2023-09-13T12:50:18.261Z,9.82
2023-09-13T12:52:45.782Z,10.30
2023-09-13T12:55:14.831Z,10.40
2023-09-13T12:57:41.769Z,10.07
2023-09-13T13:00:13.379Z,9.88
2023-09-13T13:02:40.599Z,10.10
2023-09-13T13:05:08.005Z,10.23
2023-09-13T13:07:52.893Z,10.00
2023-09-13T13:10:27.216Z,9.93
2023-09-13T13:12:56.964Z,10.32
2023-09-13T13:15:31.768Z,11.10
2023-09-13T13:17:58.921Z,10.57
2023-09-13T13:20:27.850Z,10.85
2023-09-13T13:22:55.328Z,10.90
2023-09-13T13:25:23.161Z,10.45
2023-09-13T13:27:50.629Z,10.52
2023-09-13T13:30:17.807Z,10.57
2023-09-13T13:32:44.879Z,10.18
2023-09-13T13:35:12.059Z,11.25
2023-09-13T13:37:45.800Z,10.43
2023-09-13T13:40:13.101Z,9.85
2023-09-13T13:42:40.040Z,10.95
2023-09-13T13:45:07.511Z,10.40
2023-09-13T13:47:34.426Z,10.10
2023-09-13T13:50:02.300Z,10.82
2023-09-13T13:52:29.375Z,10.18
2023-09-13T13:54:56.436Z,10.10
2023-09-13T13:57:23.815Z,10.10
2023-09-13T13:59:51.035Z,10.15
2023-09-13T14:02:19.228Z,10.02
2023-09-13T14:04:48.441Z,9.30
2023-09-13T14:07:15.372Z,10.20
2023-09-13T14:09:42.410Z,9.60
2023-09-13T14:12:09.549Z,9.43
2023-09-13T14:14:36.566Z,9.77
2023-09-13T14:17:05.329Z,9.82
2023-09-13T14:19:34.348Z,9.30
2023-09-13T14:22:02.478Z,9.40
2023-09-13T14:24:29.615Z,8.90
2023-09-13T14:26:56.900Z,9.05
2023-09-13T14:29:23.910Z,9.23
2023-09-13T14:31:51.594Z,9.32
2023-09-13T14:34:20.149Z,9.07
2023-09-13T14:36:47.444Z,8.95
2023-09-13T14:39:14.480Z,8.93
2023-09-13T14:41:42.405Z,9.98
2023-09-13T14:44:09.412Z,9.35
2023-09-13T14:46:36.520Z,9.82
2023-09-13T14:49:04.248Z,9.30
2023-09-13T15:50:03.839Z,10.88
2023-09-13T15:52:30.914Z,11.43
2023-09-13T15:54:58.077Z,11.07
2023-09-13T15:57:25.431Z,10.95
2023-09-13T15:59:52.431Z,10.70
2023-09-13T16:02:19.425Z,11.05
2023-09-13T16:04:46.409Z,11.20
2023-09-13T16:07:14.708Z,10.77
2023-09-13T16:09:41.752Z,10.75
2023-09-13T16:12:09.014Z,11.48
2023-09-13T16:14:36.947Z,10.93
2023-09-13T16:17:05.234Z,10.90
2023-09-13T16:19:33.974Z,11.10
2023-09-13T16:22:00.933Z,11.12
2023-09-13T16:24:27.915Z,12.10
2023-09-13T16:26:55.208Z,10.73
2023-09-13T16:29:22.131Z,11.90
2023-09-13T16:31:49.887Z,12.15
2023-09-13T16:34:17.560Z,11.98
2023-09-13T16:36:44.682Z,12.52
2023-09-13T16:39:13.870Z,11.95
2023-09-13T16:41:40.837Z,11.88
2023-09-13T16:44:07.926Z,11.85
2023-09-13T16:46:34.840Z,11.45
2023-09-13T16:49:02.078Z,12.15
2023-09-13T16:51:29.647Z,12.18
2023-09-13T16:53:57.211Z,11.98
2023-09-13T16:56:24.651Z,12.07
2023-09-13T16:58:51.642Z,11.90
2023-09-13T17:01:18.921Z,12.05
2023-09-13T17:03:46.918Z,11.02
2023-09-13T17:06:15.012Z,12.00
2023-09-13T17:08:42.773Z,12.70
2023-09-13T17:11:13.247Z,12.52
2023-09-13T17:13:40.641Z,12.45
2023-09-13T17:16:07.633Z,11.75
2023-09-13T17:18:35.221Z,11.80
2023-09-13T17:21:02.444Z,13.15
2023-09-13T17:23:30.576Z,13.23
2023-09-13T17:25:58.333Z,12.45
2023-09-13T17:28:25.370Z,12.48
2023-09-13T17:30:54.019Z,12.80
2023-09-13T17:33:21.173Z,13.02
2023-09-13T17:35:49.255Z,12.55
2023-09-13T17:38:18.428Z,12.95
2023-09-13T17:40:48.090Z,13.23
2023-09-13T17:43:15.436Z,13.27
2023-09-13T17:45:43.027Z,12.68
2023-09-13T17:48:10.230Z,12.70
2023-09-13T17:50:37.178Z,13.77
2023-09-13T17:53:05.500Z,12.85
2023-09-13T17:55:32.720Z,13.55
2023-09-13T17:58:01.435Z,13.13
2023-09-13T18:00:31.659Z,13.55
2023-09-13T18:02:58.731Z,13.80
2023-09-13T18:05:25.746Z,13.85
2023-09-13T18:07:58.079Z,13.75
2023-09-13T18:10:25.627Z,14.40
2023-09-13T18:12:52.654Z,14.40
2023-09-13T18:15:19.713Z,14.05
2023-09-13T18:17:54.373Z,14.48
2023-09-13T18:20:23.590Z,14.60
2023-09-13T18:22:50.702Z,13.82
2023-09-13T18:25:17.834Z,14.27
2023-09-13T18:27:45.013Z,14.40
2023-09-13T18:30:12.851Z,14.40
2023-09-13T18:32:39.900Z,14.13
2023-09-13T18:35:07.413Z,14.00
2023-09-13T18:37:35.976Z,13.77
2023-09-13T18:40:04.574Z,13.57
2023-09-13T18:42:35.215Z,13.75
2023-09-13T18:45:04.399Z,14.60
2023-09-13T18:47:31.375Z,14.60
2023-09-13T18:50:00.938Z,14.38
2023-09-13T18:52:30.825Z,14.35
2023-09-13T18:54:57.792Z,15.07
2023-09-13T18:57:24.783Z,13.90
2023-09-13T18:59:51.756Z,14.57
2023-09-13T19:02:18.711Z,14.13
2023-09-13T19:04:45.644Z,14.48
2023-09-13T19:07:15.390Z,13.82
2023-09-13T19:09:42.583Z,14.52
2023-09-13T19:12:09.546Z,15.25
2023-09-13T19:14:38.976Z,15.05
2023-09-13T19:17:05.888Z,14.82
2023-09-13T19:19:35.692Z,14.93
2023-09-13T19:22:03.159Z,15.23
2023-09-13T19:24:36.160Z,14.68
2023-09-13T19:27:13.517Z,15.23
2023-09-13T19:29:40.650Z,14.52
2023-09-13T19:32:07.576Z,15.00
2023-09-13T19:34:34.540Z,14.48
2023-09-13T19:37:01.768Z,15.18
2023-09-13T19:39:28.826Z,14.95
2023-09-13T19:41:55.958Z,14.55
2023-09-13T19:44:22.875Z,15.30
2023-09-13T19:46:50.385Z,14.73
2023-09-13T19:49:17.406Z,14.63
2023-09-13T19:51:44.400Z,14.55
2023-09-13T19:54:11.386Z,14.40
2023-09-13T19:56:38.341Z,14.57
2023-09-13T19:59:05.389Z,14.75
2023-09-13T20:01:32.349Z,15.02
2023-09-13T20:03:59.422Z,14.85
2023-09-13T20:06:29.223Z,15.52
2023-09-13T20:08:56.115Z,14.60
2023-09-13T20:11:24.053Z,14.68
2023-09-13T20:13:50.937Z,16.15
2023-09-13T20:16:17.930Z,15.35
2023-09-13T20:18:46.027Z,14.98
2023-09-13T20:21:13.438Z,14.50
2023-09-13T20:23:41.594Z,14.63
2023-09-13T20:26:08.644Z,15.15
2023-09-13T20:28:35.934Z,14.43
2023-09-13T20:31:03.011Z,14.98
2023-09-13T20:33:32.018Z,14.57
2023-09-13T20:36:01.236Z,15.32
2023-09-13T20:38:28.725Z,15.30
2023-09-13T20:40:55.637Z,15.13
2023-09-13T20:43:22.575Z,15.23
2023-09-13T20:45:50.455Z,15.45
2023-09-13T20:48:17.578Z,14.68
2023-09-13T20:50:44.612Z,14.52
2023-09-13T20:53:11.606Z,13.55
2023-09-13T20:55:38.565Z,14.15
2023-09-13T20:58:05.560Z,13.70
2023-09-13T21:00:33.146Z,12.95
2023-09-13T21:03:00.760Z,11.93
2023-09-13T21:05:27.702Z,12.15
2023-09-13T21:07:55.815Z,11.30
2023-09-13T21:10:22.744Z,9.68
2023-09-13T21:12:49.787Z,8.90
2023-09-13T21:15:16.762Z,8.32
2023-09-13T21:17:43.853Z,8.00
2023-09-13T21:20:10.993Z,7.22
2023-09-13T21:22:38.049Z,6.72
2023-09-13T21:25:05.451Z,7.68
2023-09-13T21:27:32.846Z,8.20
2023-09-13T21:29:59.800Z,7.70
2023-09-13T21:32:26.857Z,7.50
2023-09-13T21:35:02.504Z,7.43
2023-09-13T21:37:34.255Z,7.50
2023-09-13T21:40:03.219Z,7.00
2023-09-13T21:42:30.444Z,6.65
2023-09-13T21:44:57.580Z,6.43
2023-09-13T21:47:25.926Z,6.07
2023-09-13T21:49:53.192Z,4.43
2023-09-13T21:52:21.324Z,4.32
2023-09-13T21:54:49.771Z,4.00
2023-09-13T21:57:22.765Z,4.30
2023-09-13T21:59:49.814Z,4.00
2023-09-13T22:02:16.778Z,4.30
2023-09-13T22:04:43.853Z,4.60
2023-09-13T22:07:11.106Z,4.12
2023-09-13T22:09:38.196Z,4.28
2023-09-13T22:12:06.195Z,4.35
2023-09-13T22:14:33.475Z,4.07
2023-09-13T22:17:00.533Z,3.75
2023-09-13T22:19:27.534Z,3.85
2023-09-13T22:21:56.090Z,3.50
2023-09-13T22:24:25.932Z,3.62
2023-09-13T22:26:53.360Z,3.35
2023-09-13T22:29:20.419Z,3.35
2023-09-13T22:31:48.283Z,3.15
2023-09-13T22:34:15.362Z,3.30
2023-09-13T22:36:42.528Z,3.70
2023-09-13T22:39:09.898Z,3.55
2023-09-13T22:41:38.768Z,3.67
2023-09-13T22:44:06.660Z,3.60
2023-09-13T22:46:33.812Z,4.10
2023-09-13T22:49:01.077Z,3.28
2023-09-13T22:51:28.190Z,4.15
2023-09-13T22:53:57.318Z,4.20
2023-09-13T22:56:24.606Z,3.80
2023-09-13T22:58:51.654Z,3.55
2023-09-13T23:01:18.656Z,3.90
2023-09-13T23:03:47.015Z,4.35
2023-09-13T23:06:15.000Z,3.83
2023-09-13T23:08:42.194Z,3.87
2023-09-13T23:11:09.122Z,3.60
2023-09-13T23:13:36.131Z,3.72
2023-09-13T23:16:06.541Z,4.00
2023-09-13T23:18:34.911Z,3.45
2023-09-13T23:21:02.753Z,3.25
2023-09-13T23:23:29.991Z,3.35
2023-09-13T23:26:07.678Z,3.30
2023-09-13T23:28:35.530Z,3.20
2023-09-13T23:31:04.137Z,3.03
2023-09-13T23:33:31.296Z,3.12
2023-09-13T23:35:58.287Z,3.30
2023-09-13T23:38:25.638Z,3.08
2023-09-13T23:40:52.600Z,2.85
2023-09-13T23:43:19.929Z,3.12
2023-09-13T23:45:47.635Z,3.53
2023-09-13T23:48:15.020Z,3.03
2023-09-13T23:50:41.977Z,3.15
2023-09-13T23:53:09.935Z,3.03
2023-09-13T23:55:36.921Z,3.20
2023-09-13T23:58:04.895Z,2.97
